Time;durP1;ratioP1;P1;durP2;ratioP2;P2;SDS_P1;SDS_P2;PMS_P1;PMS_P2;Temp;Humidity;BMP_temperature;BMP_pressure;BME280_temperature;BME280_humidity;BME280_pressure;Samples;Min_cycle;Max_cycle;Signal;HPM_P1;HPM_P2
2021/12/27 00:00:19;;;;;;;86.40;34.67;;;;;;;2.27;100.00;94825.69;1005568;29;20057;-67
2021/12/27 00:00:49;;;;;;;83.22;35.25;;;;;;;2.25;100.00;94827.75;1012413;29;20076;-68
2021/12/27 00:01:20;;;;;;;83.93;36.78;;;;;;;2.19;100.00;94818.31;1008062;29;20768;-68
2021/12/27 00:01:50;;;;;;;79.25;34.38;;;;;;;2.18;100.00;94814.13;1013224;29;20024;-68
2021/12/27 00:02:21;;;;;;;71.65;33.15;;;;;;;2.24;100.00;94820.97;1009980;29;20062;-68
2021/12/27 00:02:53;;;;;;;85.78;36.30;;;;;;;2.26;100.00;94824.13;1002484;29;20575;-67
2021/12/27 00:03:24;;;;;;;84.80;34.97;;;;;;;2.25;100.00;94831.13;1003031;29;20578;-68
2021/12/27 00:03:56;;;;;;;76.80;34.13;;;;;;;2.23;100.00;94822.00;1009607;29;20272;-68
2021/12/27 00:04:26;;;;;;;75.97;34.88;;;;;;;2.24;100.00;94823.56;1012146;29;20028;-68
2021/12/27 00:04:57;;;;;;;83.53;34.85;;;;;;;2.25;100.00;94822.56;1017940;29;20327;-67
2021/12/27 00:05:28;;;;;;;75.32;33.38;;;;;;;2.21;100.00;94816.25;1013987;29;20024;-67
2021/12/27 00:05:58;;;;;;;78.10;35.10;;;;;;;2.28;100.00;94824.66;1014271;29;20035;-67
2021/12/27 00:06:30;;;;;;;84.40;35.83;;;;;;;2.27;100.00;94821.28;1010056;29;20097;-68
2021/12/27 00:07:00;;;;;;;79.95;33.90;;;;;;;2.25;100.00;94820.75;1010571;29;20025;-68
2021/12/27 00:07:31;;;;;;;89.07;37.15;;;;;;;2.23;100.00;94820.19;1014277;29;20264;-68
2021/12/27 00:08:02;;;;;;;77.22;34.25;;;;;;;2.22;100.00;94820.44;1010591;29;20024;-67
2021/12/27 00:08:32;;;;;;;89.28;36.58;;;;;;;2.23;100.00;94824.59;1010416;29;20021;-68
2021/12/27 00:09:02;;;;;;;83.95;36.72;;;;;;;2.25;100.00;94819.97;1006153;29;20025;-66
2021/12/27 00:09:35;;;;;;;74.82;34.33;;;;;;;2.25;100.00;94822.56;1006492;29;20020;-68
2021/12/27 00:10:06;;;;;;;91.07;37.03;;;;;;;2.25;100.00;94830.34;1011466;29;20041;-67
2021/12/27 00:10:36;;;;;;;90.57;37.00;;;;;;;2.23;100.00;94820.19;1018401;29;20654;-68
2021/12/27 00:11:10;;;;;;;85.78;35.10;;;;;;;2.19;100.00;94819.09;1021213;29;20113;-67
2021/12/27 00:11:41;;;;;;;112.53;38.97;;;;;;;2.20;100.00;94825.06;1022174;29;20054;-67
2021/12/27 00:12:11;;;;;;;80.57;34.08;;;;;;;2.22;100.00;94825.63;1014752;29;20324;-67
2021/12/27 00:12:42;;;;;;;75.80;34.20;;;;;;;2.23;100.00;94824.59;1010310;29;20505;-67
2021/12/27 00:13:12;;;;;;;94.30;36.67;;;;;;;2.23;100.00;94825.38;1006446;29;20028;-66
2021/12/27 00:13:43;;;;;;;81.22;34.97;;;;;;;2.24;100.00;94826.16;1007202;29;20025;-68
2021/12/27 00:14:13;;;;;;;80.63;34.20;;;;;;;2.20;100.00;94814.69;1006648;29;20427;-67
2021/12/27 00:14:43;;;;;;;84.78;35.75;;;;;;;2.25;100.00;94822.56;1010262;29;20036;-67
2021/12/27 00:15:14;;;;;;;84.35;34.97;;;;;;;2.23;100.00;94819.41;1014192;29;20025;-67
2021/12/27 00:15:45;;;;;;;79.30;34.38;;;;;;;2.24;100.00;94826.16;1012360;29;20501;-69
2021/12/27 00:16:15;;;;;;;87.90;36.03;;;;;;;2.24;100.00;94818.38;1010444;29;20072;-67
2021/12/27 00:16:46;;;;;;;90.60;35.42;;;;;;;2.24;100.00;94820.97;1014055;29;20119;-67
2021/12/27 00:17:16;;;;;;;81.60;34.92;;;;;;;2.24;100.00;94826.94;1006252;29;20045;-67
2021/12/27 00:17:47;;;;;;;82.75;34.40;;;;;;;2.22;100.00;94820.44;1006397;29;20037;-67
2021/12/27 00:18:17;;;;;;;88.72;35.55;;;;;;;2.23;100.00;94815.03;1006849;29;20029;-69
2021/12/27 00:18:48;;;;;;;106.65;37.47;;;;;;;2.25;100.00;94819.97;1007414;29;20447;-67
2021/12/27 00:19:18;;;;;;;96.63;36.38;;;;;;;2.26;100.00;94822.31;1009643;29;20025;-68
2021/12/27 00:19:49;;;;;;;98.55;37.13;;;;;;;2.25;100.00;94822.56;1014213;29;20035;-67
2021/12/27 00:20:19;;;;;;;86.25;34.95;;;;;;;2.23;100.00;94822.00;1008505;29;20028;-67
2021/12/27 00:20:50;;;;;;;78.53;33.40;;;;;;;2.20;100.00;94814.69;1004951;29;20056;-69
2021/12/27 00:21:20;;;;;;;80.75;35.90;;;;;;;2.23;100.00;94819.41;1002698;29;20022;-68
2021/12/27 00:21:51;;;;;;;75.93;33.72;;;;;;;2.24;100.00;94823.56;1006583;29;20403;-68
2021/12/27 00:22:22;;;;;;;81.22;33.72;;;;;;;2.24;100.00;94824.34;1010755;29;20021;-69
2021/12/27 00:22:52;;;;;;;88.93;36.13;;;;;;;2.26;100.00;94826.72;1010764;29;20132;-67
2021/12/27 00:23:23;;;;;;;104.70;37.63;;;;;;;2.24;100.00;94824.34;1014111;29;20738;-68
2021/12/27 00:23:53;;;;;;;97.97;38.13;;;;;;;2.26;100.00;94824.13;1014473;29;20466;-68
2021/12/27 00:24:24;;;;;;;87.10;36.03;;;;;;;2.26;100.00;94824.91;1014328;29;20060;-68
2021/12/27 00:24:54;;;;;;;85.32;35.67;;;;;;;2.28;100.00;94829.84;1018382;29;20039;-68
2021/12/27 00:25:26;;;;;;;93.20;36.72;;;;;;;2.17;100.00;94815.16;1022060;28;20015;-68
2021/12/27 00:25:57;;;;;;;73.10;32.97;;;;;;;2.27;100.00;94820.50;1014169;29;20021;-68
2021/12/27 00:26:27;;;;;;;74.10;32.67;;;;;;;2.26;100.00;94829.31;1010528;29;20277;-66
2021/12/27 00:26:57;;;;;;;78.78;35.08;;;;;;;2.19;100.00;94813.16;1009994;29;20031;-68
2021/12/27 00:27:28;;;;;;;74.75;33.25;;;;;;;2.26;100.00;94822.31;1007230;29;20032;-68
2021/12/27 00:27:58;;;;;;;71.75;32.72;;;;;;;2.25;100.00;94825.94;1018600;29;20000;-68
2021/12/27 00:28:30;;;;;;;74.00;33.30;;;;;;;2.28;100.00;94814.31;1018200;29;20501;-68
2021/12/27 00:29:00;;;;;;;75.95;34.03;;;;;;;2.27;100.00;94818.72;1014282;29;20472;-67
2021/12/27 00:29:31;;;;;;;77.72;34.50;;;;;;;2.29;100.00;94821.09;1013999;29;20341;-68
2021/12/27 00:30:01;;;;;;;77.97;34.70;;;;;;;2.22;100.00;94807.50;1010402;29;20020;-64
2021/12/27 00:30:43;;;;;;;71.22;31.75;;;;;;;2.30;100.00;94822.63;1014185;29;20115;-68
2021/12/27 00:31:14;;;;;;;90.40;34.97;;;;;;;2.10;100.00;94795.38;1013947;29;20909;-68
2021/12/27 00:31:44;;;;;;;76.57;33.88;;;;;;;2.24;100.00;94815.81;1010279;29;20268;-67
2021/12/27 00:32:17;;;;;;;79.10;34.40;;;;;;;2.21;100.00;94811.88;1006402;29;20108;-67
2021/12/27 00:32:49;;;;;;;90.88;36.08;;;;;;;2.24;100.00;94813.22;1010360;29;20063;-68
2021/12/27 00:33:19;;;;;;;126.70;40.78;;;;;;;2.20;100.00;94805.13;1006751;29;20276;-68
2021/12/27 00:33:50;;;;;;;78.22;33.47;;;;;;;2.19;100.00;94813.16;1006375;29;20730;-67
2021/12/27 00:34:20;;;;;;;79.45;34.17;;;;;;;2.26;100.00;94824.91;1010254;29;20028;-68
2021/12/27 00:34:51;;;;;;;87.85;35.53;;;;;;;2.23;100.00;94811.66;1014475;29;20054;-68
2021/12/27 00:35:25;;;;;;;85.07;35.55;;;;;;;2.27;100.00;94818.72;1010197;29;20023;-67
2021/12/27 00:35:56;;;;;;;83.68;34.67;;;;;;;2.27;100.00;94812.75;1014277;29;20027;-69
2021/12/27 00:36:26;;;;;;;86.28;35.72;;;;;;;2.23;100.00;94811.66;1010144;29;20272;-69
2021/12/27 00:36:57;;;;;;;88.70;35.40;;;;;;;2.21;100.00;94806.69;1010343;29;20031;-69
2021/12/27 00:37:27;;;;;;;76.40;33.83;;;;;;;2.26;100.00;94811.97;1018268;29;20099;-68
2021/12/27 00:37:58;;;;;;;79.97;34.13;;;;;;;2.23;100.00;94811.66;1017961;29;20028;-68
2021/12/27 00:38:29;;;;;;;77.35;34.33;;;;;;;2.20;100.00;94804.34;1013535;29;20032;-68
2021/12/27 00:38:59;;;;;;;77.78;34.03;;;;;;;2.26;100.00;94813.78;1014515;29;20266;-68
2021/12/27 00:39:30;;;;;;;82.85;34.90;;;;;;;2.24;100.00;94816.59;1022026;29;20030;-68
2021/12/27 00:40:00;;;;;;;81.55;34.30;;;;;;;2.22;100.00;94808.28;1021534;29;20022;-65
2021/12/27 00:40:31;;;;;;;77.57;33.25;;;;;;;2.27;100.00;94815.34;1013865;29;20107;-68
2021/12/27 00:41:01;;;;;;;83.45;35.20;;;;;;;2.27;100.00;94816.13;1014439;29;20023;-68
2021/12/27 00:41:32;;;;;;;80.18;34.88;;;;;;;2.29;100.00;94818.50;1021175;29;20697;-67
2021/12/27 00:42:03;;;;;;;73.18;34.15;;;;;;;2.23;100.00;94803.88;1006410;29;20033;-68
2021/12/27 00:42:33;;;;;;;77.65;33.72;;;;;;;2.27;100.00;94816.13;1014175;29;20434;-68
2021/12/27 00:43:04;;;;;;;81.30;35.15;;;;;;;2.26;100.00;94813.78;1018271;29;20028;-69
2021/12/27 00:43:34;;;;;;;75.82;34.10;;;;;;;2.27;100.00;94815.34;1013820;29;20020;-67
2021/12/27 00:44:04;;;;;;;92.72;36.60;;;;;;;2.27;100.00;94813.53;1010306;29;20032;-65
2021/12/27 00:44:35;;;;;;;98.35;37.17;;;;;;;2.19;100.00;94807.97;1006447;29;20021;-68
2021/12/27 00:45:06;;;;;;;79.70;34.38;;;;;;;2.27;100.00;94815.34;1006517;29;20017;-66
2021/12/27 00:45:36;;;;;;;80.45;35.33;;;;;;;2.26;100.00;94806.78;1007028;29;20548;-68
2021/12/27 00:46:07;;;;;;;67.72;33.35;;;;;;;2.24;100.00;94808.03;1006748;29;20029;-68
2021/12/27 00:46:38;;;;;;;80.68;34.70;;;;;;;2.28;100.00;94816.91;1018585;28;20079;-68
2021/12/27 00:47:08;;;;;;;80.32;34.15;;;;;;;2.20;100.00;94804.34;1022741;29;20020;-68
2021/12/27 00:47:38;;;;;;;84.90;35.00;;;;;;;2.22;100.00;94804.91;1014474;29;20048;-69
2021/12/27 00:48:09;;;;;;;74.95;33.58;;;;;;;2.11;100.00;94793.59;1018414;29;20032;-68
2021/12/27 00:48:39;;;;;;;79.95;33.42;;;;;;;2.28;100.00;94812.53;1018322;29;20023;-68
2021/12/27 00:49:10;;;;;;;90.35;37.38;;;;;;;2.29;100.00;94818.50;1018591;29;20023;-68
2021/12/27 00:49:41;;;;;;;84.25;35.38;;;;;;;2.29;100.00;94813.31;1014721;29;20025;-68
2021/12/27 00:50:12;;;;;;;81.47;35.08;;;;;;;2.29;100.00;94819.28;1015890;29;20432;-69
2021/12/27 00:50:43;;;;;;;81.30;34.53;;;;;;;2.29;100.00;94813.31;1014407;29;20264;-68
2021/12/27 00:51:13;;;;;;;83.25;35.00;;;;;;;2.29;100.00;94821.09;1006553;29;20021;-68
2021/12/27 00:51:44;;;;;;;81.93;34.53;;;;;;;2.23;100.00;94809.84;1006675;29;20982;-68
2021/12/27 00:52:14;;;;;;;85.35;34.17;;;;;;;2.28;100.00;94815.13;1006482;29;20029;-68
2021/12/27 00:52:46;;;;;;;104.63;38.50;;;;;;;2.28;100.00;94811.72;1010312;29;20017;-67
2021/12/27 00:53:18;;;;;;;89.55;36.22;;;;;;;2.28;100.00;94816.91;1010539;29;20017;-68
2021/12/27 00:53:49;;;;;;;92.50;36.10;;;;;;;2.28;100.00;94803.97;1011235;29;20643;-68
2021/12/27 00:54:19;;;;;;;91.55;36.10;;;;;;;2.29;100.00;94803.75;1018084;29;20507;-68
2021/12/27 00:54:50;;;;;;;95.78;36.35;;;;;;;2.30;100.00;94809.69;1017977;29;20075;-67
2021/12/27 00:55:20;;;;;;;103.47;37.88;;;;;;;2.24;100.00;94805.44;1014732;29;20574;-68
2021/12/27 00:55:51;;;;;;;107.25;39.67;;;;;;;2.28;100.00;94814.31;1015087;29;20463;-67
2021/12/27 00:56:21;;;;;;;95.85;37.85;;;;;;;2.29;100.00;94803.75;1011156;29;20025;-69
2021/12/27 00:56:52;;;;;;;84.90;35.85;;;;;;;2.28;100.00;94816.91;1006879;29;20095;-67
2021/12/27 00:57:22;;;;;;;90.43;34.97;;;;;;;2.24;100.00;94806.22;1011309;29;20025;-67
2021/12/27 00:57:53;;;;;;;73.22;33.95;;;;;;;2.28;100.00;94811.72;1011229;29;20025;-68
2021/12/27 00:58:23;;;;;;;89.32;36.40;;;;;;;2.21;100.00;94803.31;1015013;29;20021;-67
2021/12/27 00:58:54;;;;;;;82.38;35.38;;;;;;;2.27;100.00;94812.75;1010748;29;20025;-68
2021/12/27 00:59:24;;;;;;;114.93;39.33;;;;;;;2.28;100.00;94819.50;1015198;29;20075;-68
2021/12/27 00:59:55;;;;;;;88.10;35.88;;;;;;;2.17;100.00;94802.22;1010885;29;20020;-67
2021/12/27 01:00:25;;;;;;;84.43;36.03;;;;;;;2.25;100.00;94819.97;1018027;29;20417;-67
2021/12/27 01:00:56;;;;;;;82.35;35.85;;;;;;;2.24;100.00;94811.41;1014804;29;20024;-67
2021/12/27 01:01:26;;;;;;;82.97;35.40;;;;;;;2.26;100.00;94811.97;1007193;29;20029;-67
2021/12/27 01:01:57;;;;;;;79.07;34.92;;;;;;;2.21;100.00;94803.31;1011267;29;20020;-67
2021/12/27 01:02:27;;;;;;;76.07;35.05;;;;;;;2.28;100.00;94817.72;1014958;29;20123;-68
2021/12/27 01:02:58;;;;;;;85.28;36.85;;;;;;;2.24;100.00;94813.22;1014947;29;20113;-68
2021/12/27 01:03:28;;;;;;;78.57;34.42;;;;;;;2.26;100.00;94818.97;1015212;29;20024;-67
2021/12/27 01:03:59;;;;;;;79.40;35.88;;;;;;;2.18;100.00;94806.38;1007412;29;20028;-68
2021/12/27 01:04:29;;;;;;;79.70;35.38;;;;;;;2.27;100.00;94815.34;1007348;29;20077;-67
2021/12/27 01:05:00;;;;;;;73.75;33.75;;;;;;;2.24;100.00;94818.38;1011233;29;20047;-68
2021/12/27 01:05:31;;;;;;;88.18;35.85;;;;;;;2.26;100.00;94814.56;1014729;29;20580;-67
2021/12/27 01:06:02;;;;;;;86.80;37.67;;;;;;;2.20;100.00;94809.53;1011467;29;20257;-67
2021/12/27 01:06:32;;;;;;;88.68;37.78;;;;;;;2.20;100.00;94799.19;1010809;29;20040;-68
2021/12/27 01:07:03;;;;;;;92.40;38.17;;;;;;;2.23;100.00;94816.81;1014477;29;20412;-67
2021/12/27 01:07:36;;;;;;;138.98;45.63;;;;;;;2.25;100.00;94815.59;1011057;29;20527;-68
2021/12/27 01:08:06;;;;;;;91.25;37.88;;;;;;;2.25;100.00;94812.22;1010951;29;20024;-68
2021/12/27 01:08:37;;;;;;;93.13;39.05;;;;;;;2.27;100.00;94815.34;1014959;29;21081;-67
2021/12/27 01:09:08;;;;;;;77.53;36.67;;;;;;;2.28;100.00;94814.31;1018172;29;20553;-66
2021/12/27 01:11:41;;;;;;;96.43;39.17;;;;;;;2.29;100.00;94823.66;1017155;29;20360;-67
2021/12/27 01:12:29;;;;;;;85.70;38.22;;;;;;;2.25;100.00;94817.41;1014809;29;20745;-67
2021/12/27 01:13:18;;;;;;;103.63;39.40;;;;;;;2.30;100.00;94809.69;1014990;29;20275;-68
2021/12/27 01:14:02;;;;;;;95.65;39.47;;;;;;;2.19;100.00;94802.78;1016967;29;20272;-67
2021/12/27 01:14:54;;;;;;;88.65;37.50;;;;;;;2.29;100.00;94813.31;1017679;29;20359;-68
2021/12/27 01:16:11;;;;;;;119.22;42.65;;;;;;;2.28;100.00;94809.94;1021409;29;21119;-68
2021/12/27 01:16:43;;;;;;;93.00;40.25;;;;;;;2.27;100.00;94807.56;1022639;29;20270;-66
2021/12/27 01:17:14;;;;;;;101.90;41.83;;;;;;;2.30;100.00;94814.88;1014741;29;20272;-68
2021/12/27 01:17:45;;;;;;;107.15;42.78;;;;;;;2.29;100.00;94808.91;1014521;29;20261;-67
2021/12/27 01:18:16;;;;;;;107.68;43.65;;;;;;;2.25;100.00;94807.03;1007330;29;20511;-67
2021/12/27 01:18:48;;;;;;;88.72;39.10;;;;;;;2.29;100.00;94816.69;1011896;29;20849;-67
2021/12/27 01:19:19;;;;;;;100.30;41.95;;;;;;;2.31;100.00;94816.44;1011262;29;20265;-67
2021/12/27 01:19:49;;;;;;;115.93;45.83;;;;;;;2.31;100.00;94812.06;1012379;29;20283;-67
2021/12/27 01:20:21;;;;;;;109.82;43.38;;;;;;;2.30;100.00;94812.28;1012694;29;20028;-67
2021/12/27 01:20:52;;;;;;;127.35;46.65;;;;;;;2.30;100.00;94820.06;1011323;29;20382;-65
2021/12/27 01:21:23;;;;;;;111.47;44.72;;;;;;;2.30;100.00;94814.88;1014752;29;20282;-63
2021/12/27 01:21:53;;;;;;;132.70;48.65;;;;;;;2.30;100.00;94820.84;1014471;29;20676;-66
2021/12/27 01:22:24;;;;;;;148.30;48.55;;;;;;;2.25;100.00;94814.81;1014993;29;20024;-67
2021/12/27 01:22:55;;;;;;;170.48;53.58;;;;;;;2.30;100.00;94820.06;1018875;29;20027;-67
2021/12/27 01:23:25;;;;;;;144.15;48.92;;;;;;;2.29;100.00;94821.84;1016036;29;20030;-67
2021/12/27 01:23:56;;;;;;;119.60;46.80;;;;;;;2.28;100.00;94816.91;1007836;29;20276;-67
2021/12/27 01:24:26;;;;;;;117.65;46.53;;;;;;;2.28;100.00;94828.06;1006705;29;20555;-67
2021/12/27 01:24:58;;;;;;;138.57;49.70;;;;;;;2.30;100.00;94825.22;1007098;29;20412;-67
2021/12/27 01:25:29;;;;;;;119.80;46.70;;;;;;;2.26;100.00;94811.19;1007653;29;20071;-66
2021/12/27 01:25:59;;;;;;;128.07;47.88;;;;;;;2.31;100.00;94821.63;1011053;29;20277;-66
2021/12/27 01:26:30;;;;;;;107.90;45.35;;;;;;;2.32;100.00;94824.00;1014922;29;20106;-63
2021/12/27 01:27:02;;;;;;;90.00;41.25;;;;;;;2.32;100.00;94829.16;1012877;29;20696;-67
2021/12/27 01:27:33;;;;;;;95.95;40.45;;;;;;;2.28;100.00;94822.88;1010768;29;20035;-66
2021/12/27 01:28:08;;;;;;;91.68;38.80;;;;;;;2.20;100.00;94817.28;1014731;29;20278;-66
2021/12/27 01:28:38;;;;;;;122.18;43.72;;;;;;;2.23;100.00;94820.19;1015433;29;20036;-67
2021/12/27 01:29:09;;;;;;;101.90;41.38;;;;;;;2.29;100.00;94826.25;1019226;29;20269;-68
2021/12/27 01:29:40;;;;;;;118.35;42.92;;;;;;;2.28;100.00;94824.66;1014704;29;20119;-67
2021/12/27 01:30:12;;;;;;;91.95;38.33;;;;;;;2.23;100.00;94814.25;1013848;29;20272;-65
2021/12/27 01:30:47;;;;;;;82.43;37.72;;;;;;;2.30;100.00;94820.06;1014248;29;20021;-65
2021/12/27 01:31:18;;;;;;;92.53;38.10;;;;;;;2.28;100.00;94816.91;1014747;29;20478;-65
2021/12/27 01:31:48;;;;;;;113.63;42.35;;;;;;;2.32;100.00;94826.56;1010617;29;20260;-66
2021/12/27 01:32:20;;;;;;;102.45;40.67;;;;;;;2.30;100.00;94828.59;1009286;29;20021;-66
2021/12/27 01:33:00;;;;;;;83.60;38.50;;;;;;;2.31;100.00;94819.03;1002712;29;20022;-66
2021/12/27 01:33:31;;;;;;;88.63;38.30;;;;;;;2.31;100.00;94827.59;1004873;29;20347;-66
2021/12/27 01:34:05;;;;;;;85.32;38.53;;;;;;;2.31;100.00;94824.19;1009730;29;20074;-67
2021/12/27 01:34:35;;;;;;;94.25;41.13;;;;;;;2.32;100.00;94824.00;1014740;29;20543;-67
2021/12/27 01:35:06;;;;;;;95.20;39.95;;;;;;;2.33;100.00;94822.19;1018791;29;20252;-66
2021/12/27 01:35:40;;;;;;;118.13;41.97;;;;;;;2.29;100.00;94821.84;1015915;29;20106;-66
2021/12/27 01:36:10;;;;;;;100.95;40.97;;;;;;;2.30;100.00;94820.06;1019504;29;20355;-67
2021/12/27 01:36:41;;;;;;;97.45;40.38;;;;;;;2.27;100.00;94823.88;1019795;29;20722;-67
2021/12/27 01:37:12;;;;;;;127.32;44.63;;;;;;;2.29;100.00;94819.28;1011252;29;20028;-67
2021/12/27 01:37:43;;;;;;;83.05;38.10;;;;;;;2.27;100.00;94823.09;1014662;29;20115;-62
2021/12/27 01:38:13;;;;;;;91.22;39.08;;;;;;;2.28;100.00;94822.06;1014178;29;20272;-67
2021/12/27 01:38:44;;;;;;;84.45;38.00;;;;;;;2.28;100.00;94816.91;1011530;29;20084;-66
2021/12/27 01:39:15;;;;;;;81.55;37.38;;;;;;;2.30;100.00;94820.06;1018903;29;20094;-65
2021/12/27 01:39:45;;;;;;;93.07;38.42;;;;;;;2.31;100.00;94821.63;1014452;29;20324;-63
2021/12/27 01:40:16;;;;;;;96.43;40.10;;;;;;;2.30;100.00;94820.06;1018328;29;20230;-65
2021/12/27 01:40:48;;;;;;;89.65;38.13;;;;;;;2.23;100.00;94803.88;1014682;29;20056;-67
2021/12/27 01:41:18;;;;;;;93.88;39.80;;;;;;;2.28;100.00;94812.53;1010814;29;20101;-67
2021/12/27 01:41:49;;;;;;;90.57;39.60;;;;;;;2.30;100.00;94825.22;1010514;29;20285;-66
2021/12/27 01:42:19;;;;;;;107.90;42.25;;;;;;;2.28;100.00;94816.91;1006853;29;20025;-66
2021/12/27 01:43:09;;;;;;;96.15;38.97;;;;;;;2.28;100.00;94820.31;1007354;29;20085;-66
2021/12/27 01:43:40;;;;;;;108.25;41.45;;;;;;;2.28;100.00;94811.72;1013339;29;20013;-67
2021/12/27 01:44:11;;;;;;;80.53;36.53;;;;;;;2.27;100.00;94815.34;1013662;29;20721;-66
2021/12/27 01:44:41;;;;;;;111.63;41.60;;;;;;;2.24;100.00;94808.03;1017576;29;20622;-67
2021/12/27 01:45:12;;;;;;;95.13;38.83;;;;;;;2.28;100.00;94809.94;1014453;29;20340;-67
2021/12/27 01:45:44;;;;;;;99.25;39.17;;;;;;;2.29;100.00;94808.91;1018621;29;20206;-63
2021/12/27 01:46:18;;;;;;;96.72;39.03;;;;;;;2.30;100.00;94809.69;1014736;29;20047;-66
2021/12/27 01:46:51;;;;;;;91.40;39.75;;;;;;;2.30;100.00;94814.88;1018778;29;20324;-66
2021/12/27 01:47:21;;;;;;;93.35;38.75;;;;;;;2.26;100.00;94803.44;1018833;29;20909;-66
2021/12/27 01:47:52;;;;;;;85.75;37.20;;;;;;;2.29;100.00;94808.13;1014652;29;20335;-67
2021/12/27 01:48:24;;;;;;;87.32;36.83;;;;;;;2.29;100.00;94808.91;1006903;29;20423;-64
2021/12/27 01:48:56;;;;;;;115.28;40.83;;;;;;;2.20;100.00;94799.19;1006965;29;20447;-66
2021/12/27 01:49:26;;;;;;;101.68;40.03;;;;;;;2.28;100.00;94811.72;1007477;29;20310;-67
2021/12/27 01:49:57;;;;;;;97.82;38.90;;;;;;;2.19;100.00;94795.81;1011754;29;20268;-64
2021/12/27 01:50:27;;;;;;;100.57;38.17;;;;;;;2.29;100.00;94808.13;1017833;29;20024;-66
2021/12/27 01:50:59;;;;;;;110.43;40.15;;;;;;;2.27;100.00;94805.00;1015081;29;20027;-66
2021/12/27 01:51:29;;;;;;;96.00;36.15;;;;;;;2.27;100.00;94810.94;1018616;29;20023;-66
2021/12/27 01:52:00;;;;;;;82.30;36.65;;;;;;;2.27;100.00;94815.34;1014637;29;20272;-66
2021/12/27 01:52:30;;;;;;;102.20;40.30;;;;;;;2.28;100.00;94806.53;1014826;29;20020;-67
2021/12/27 01:53:01;;;;;;;89.95;37.40;;;;;;;2.30;100.00;94812.28;1010648;29;20025;-66
2021/12/27 01:53:32;;;;;;;92.50;37.22;;;;;;;2.29;100.00;94803.75;1013966;29;20032;-66
2021/12/27 01:54:03;;;;;;;91.97;36.33;;;;;;;2.30;100.00;94800.13;1011062;29;20505;-66
2021/12/27 01:54:34;;;;;;;95.10;37.83;;;;;;;2.30;100.00;94805.31;1015619;29;20332;-66
2021/12/27 01:55:04;;;;;;;85.15;35.47;;;;;;;2.30;100.00;94804.53;1015724;29;20043;-64
2021/12/27 01:55:35;;;;;;;101.68;40.45;;;;;;;2.29;100.00;94805.56;1012914;29;20028;-66
2021/12/27 01:56:06;;;;;;;111.88;39.80;;;;;;;2.22;100.00;94791.97;1015652;29;20024;-67
2021/12/27 01:56:37;;;;;;;111.60;40.22;;;;;;;2.27;100.00;94799.81;1019920;29;20027;-66
2021/12/27 01:57:07;;;;;;;97.55;38.85;;;;;;;2.25;100.00;94802.66;1018905;29;20359;-66
2021/12/27 01:57:38;;;;;;;94.30;37.15;;;;;;;2.24;100.00;94801.06;1011361;29;20020;-66
2021/12/27 01:58:08;;;;;;;83.00;35.70;;;;;;;2.24;100.00;94803.66;1007655;29;20021;-66
2021/12/27 01:58:39;;;;;;;101.07;39.05;;;;;;;2.16;100.00;94787.72;1007449;29;20021;-66
2021/12/27 01:59:09;;;;;;;110.30;40.97;;;;;;;2.22;100.00;94797.94;1012078;29;20075;-67
2021/12/27 01:59:40;;;;;;;97.20;39.20;;;;;;;2.23;100.00;94804.66;1011694;29;20020;-66
2021/12/27 02:00:11;;;;;;;95.90;38.65;;;;;;;2.23;100.00;94803.88;1003204;29;20014;-63
2021/12/27 02:00:43;;;;;;;93.60;38.47;;;;;;;2.21;100.00;94801.53;1008141;29;20048;-66
2021/12/27 02:01:14;;;;;;;96.10;38.28;;;;;;;2.21;100.00;94793.75;1008607;29;20849;-65
2021/12/27 02:01:44;;;;;;;87.93;38.80;;;;;;;2.18;100.00;94796.84;1016319;29;20269;-66
2021/12/27 02:02:15;;;;;;;96.38;39.20;;;;;;;2.16;100.00;94787.72;1019487;29;20067;-66
2021/12/27 02:02:45;;;;;;;111.18;41.72;;;;;;;2.21;100.00;94800.75;1015622;29;20493;-66
2021/12/27 02:03:17;;;;;;;102.97;39.40;;;;;;;2.20;100.00;94799.97;1011996;29;20502;-66
2021/12/27 02:03:49;;;;;;;117.13;42.63;;;;;;;2.13;100.00;94789.75;1007763;29;20483;-66
2021/12/27 02:04:19;;;;;;;115.82;41.75;;;;;;;2.19;100.00;94800.97;1007917;29;20640;-66
2021/12/27 02:04:50;;;;;;;96.68;38.13;;;;;;;2.22;100.00;94803.09;1007872;29;20261;-66
2021/12/27 02:05:20;;;;;;;89.43;38.45;;;;;;;2.23;100.00;94802.09;1007940;29;20089;-66
2021/12/27 02:05:51;;;;;;;84.43;36.38;;;;;;;2.23;100.00;94796.91;1011791;29;20615;-65
2021/12/27 02:06:21;;;;;;;82.63;36.58;;;;;;;2.16;100.00;94790.31;1015855;29;20573;-66
2021/12/27 02:06:52;;;;;;;97.10;39.38;;;;;;;2.23;100.00;94803.88;1011717;29;20072;-65
2021/12/27 02:07:22;;;;;;;82.70;36.78;;;;;;;2.27;100.00;94802.41;1015416;29;20402;-65
2021/12/27 02:07:52;;;;;;;111.82;41.42;;;;;;;2.26;100.00;94798.25;1015669;29;20040;-66
2021/12/27 02:08:23;;;;;;;137.75;43.65;;;;;;;2.26;100.00;94795.66;1015831;29;20383;-66
2021/12/27 02:08:53;;;;;;;127.70;41.83;;;;;;;2.25;100.00;94796.69;1019591;29;20016;-66
2021/12/27 02:09:34;;;;;;;97.90;39.85;;;;;;;2.27;100.00;94805.00;1015453;29;20020;-66
2021/12/27 02:10:05;;;;;;;;;;;;;;;2.26;100.00;94795.66;1015525;29;20028;-65
2021/12/27 02:10:35;;;;;;;100.68;37.55;;;;;;;2.27;100.00;94802.41;1016814;29;19911;-67
2021/12/27 02:11:06;;;;;;;127.85;40.60;;;;;;;2.20;100.00;94792.19;1011751;29;20036;-63
2021/12/27 02:11:36;;;;;;;130.70;41.03;;;;;;;2.20;100.00;94794.00;1007962;29;20017;-67
2021/12/27 02:12:07;;;;;;;106.30;39.22;;;;;;;2.27;100.00;94799.81;1007531;29;20029;-63
2021/12/27 02:12:38;;;;;;;100.50;38.83;;;;;;;2.23;100.00;94794.31;1011707;29;20418;-66
2021/12/27 02:13:09;;;;;;;88.47;36.40;;;;;;;2.24;100.00;94803.66;1015814;29;20032;-66
2021/12/27 02:13:43;;;;;;;90.53;38.22;;;;;;;2.26;100.00;94796.44;1012825;29;20858;-67
2021/12/27 02:14:13;;;;;;;96.38;37.58;;;;;;;2.27;100.00;94792.03;1012611;29;20104;-66
2021/12/27 02:14:44;;;;;;;104.65;38.22;;;;;;;2.25;100.00;94796.69;1016219;29;20276;-66
2021/12/27 02:15:17;;;;;;;108.25;40.03;;;;;;;2.27;100.00;94794.63;1013475;29;20032;-66
2021/12/27 02:15:48;;;;;;;119.30;41.00;;;;;;;2.26;100.00;94800.84;1012028;29;20265;-66
2021/12/27 02:16:20;;;;;;;108.93;39.95;;;;;;;2.25;100.00;94791.50;1015397;29;20076;-67
2021/12/27 02:16:50;;;;;;;112.35;39.15;;;;;;;2.24;100.00;94793.28;1012983;29;21044;-65
2021/12/27 02:17:21;;;;;;;99.90;38.83;;;;;;;2.22;100.00;94792.75;1019546;29;20268;-66
2021/12/27 02:17:51;;;;;;;96.10;37.97;;;;;;;2.22;100.00;94797.16;1015375;29;20052;-67
2021/12/27 02:18:22;;;;;;;90.78;37.53;;;;;;;2.23;100.00;94798.72;1010340;29;20513;-64
2021/12/27 02:18:55;;;;;;;100.70;37.85;;;;;;;2.24;100.00;94798.47;1011397;29;20590;-66
2021/12/27 02:19:25;;;;;;;94.80;38.65;;;;;;;2.23;100.00;94798.72;1011225;29;20066;-67
2021/12/27 02:19:56;;;;;;;88.32;36.00;;;;;;;2.26;100.00;94800.84;1011853;29;20269;-66
2021/12/27 02:20:28;;;;;;;90.38;36.92;;;;;;;2.23;100.00;94798.72;1013631;29;20024;-66
2021/12/27 02:20:59;;;;;;;79.07;35.15;;;;;;;2.24;100.00;94795.09;1015227;29;20035;-66
2021/12/27 02:21:29;;;;;;;95.25;36.88;;;;;;;2.26;100.00;94798.25;1015723;29;20264;-66
2021/12/27 02:21:59;;;;;;;90.00;36.83;;;;;;;2.18;100.00;94780.50;1014312;29;20020;-67
2021/12/27 02:22:35;;;;;;;93.03;36.55;;;;;;;2.20;100.00;94788.81;1018021;29;20075;-67
2021/12/27 02:23:11;;;;;;;97.93;37.28;;;;;;;2.20;100.00;94796.59;1003791;29;20018;-66
2021/12/27 02:23:42;;;;;;;105.50;37.70;;;;;;;2.24;100.00;94795.09;1007417;29;20278;-65
2021/12/27 02:24:12;;;;;;;96.93;38.13;;;;;;;2.27;100.00;94797.22;1015662;29;20264;-67
2021/12/27 02:24:42;;;;;;;108.82;37.83;;;;;;;2.26;100.00;94796.44;1011536;29;20021;-66
2021/12/27 02:25:13;;;;;;;103.40;38.03;;;;;;;2.26;100.00;94798.25;1008092;29;20035;-66
2021/12/27 02:25:47;;;;;;;107.00;39.08;;;;;;;2.18;100.00;94790.84;1003502;29;20032;-67
2021/12/27 02:26:17;;;;;;;101.72;38.45;;;;;;;2.25;100.00;94794.09;1008344;29;20027;-67